Underhill Center, VT

7:22 PM EST on November 26, 2014 (GMT -0500)
Mountain Rd | Change Station
CLOSE
Current Station
Personal Weather Station
Location: Underhill, VT
Elevation: 1194 ft
Nearby Weather Stations
Active Advisory: Winter Storm Warning Active Notice: Public Information Statement

Elev 1194 ft 44.52 °N, 72.87 °W | Updated 10 seconds ago

Snow
Snow
26.8 °F
Feels Like 27 °F
N
0.0
Wind Variable Wind from WNW
Gusts 0.0 mph

Today
High -- | Low -- °F
--% Chance of Precip.
Yesterday
High -- | Low -- °F
Precip. -- in
7:02 AM 4:15 PM
Waxing Crescent, 24% visible
Pressure 30.06 in
Visibility 0.8 miles
Clouds
Windchill 27 °F
Dew Point 25 °F
Humidity 94%
Rainfall 0.00 in
Snow Depth Not available.
UV Not available.
Pollen .10 out of 12
Air Quality Not available.
Flu Activity Not available.
METAR KBTV 262354Z 36010KT 3/4SM R15/5000VP6000FT -SN BR VV007 M02/M03 A3005 RMK AO2 SLP180 SNINCR 1/4 4/004 P0005 60019 T10171033 10011 21017 57023 $

More Conditions Fewer Conditions

Pressure 30.06 in
Visibility 0.8 miles
Clouds
Windchill 27 °F
Dew Point 25 °F
Humidity 94%
Rainfall 0.00 in
Snow Depth Not available.
UV Not available.
Pollen .10 out of 12
Air Quality Not available.
Flu Activity Not available.
METAR KBTV 262354Z 36010KT 3/4SM R15/5000VP6000FT -SN BR VV007 M02/M03 A3005 RMK AO2 SLP180 SNINCR 1/4 4/004 P0005 60019 T10171033 10011 21017 57023 $

More Conditions Fewer Conditions

10-Day Weather Forecast

Almanac

Astronomy

Nov. 26, 2014 Rise Set
Actual Time
Civil Twilight
Nautical Twilight
Astronomical Twilight
Moon
Length of Visible Light
Length of Day
Tomorrow will be .
, % of the Moon is Illuminated

Today's Extremes

State Highs State Lows

Community

WunderPhotos

Upload Photos

1,773,930 photos uploaded!

WunderBlogs® & News

Nearby

Air Quality

  Air Quality AQ Index Pollutant
Not available.

Snow Depth

Station Depth Elevation

Earthquake Activity

City Distance Mag. Time & Date
Minimum magnitude displayed is 2.5.

Coastal Water Temperatures

Place Temperature

Nearby Weather Stations